Time;durP1;ratioP1;P1;durP2;ratioP2;P2;SDS_P1;SDS_P2;PMS_P1;PMS_P2;Temp;Humidity;BMP_temperature;BMP_pressure;BME280_temperature;BME280_humidity;BME280_pressure;Samples;Min_cycle;Max_cycle;Signal;HPM_P1;HPM_P2
2021/09/01 00:00:18;;;;;;;8.77;6.95;;;;;;;;;;5055606;28;20021;-82
2021/09/01 00:02:44;;;;;;;10.10;7.28;;;;;;;;;;5054949;28;20017;-83
2021/09/01 00:05:10;;;;;;;9.88;6.57;;;;;;;;;;5055942;28;20085;-83
2021/09/01 00:07:37;;;;;;;7.95;7.13;;;;;;;;;;5054587;28;20032;-84
2021/09/01 00:10:05;;;;;;;8.10;6.80;;;;;;;;;;5047930;28;20026;-85
2021/09/01 00:12:31;;;;;;;6.25;5.65;;;;;;;;;;5042153;28;20026;-85
2021/09/01 00:14:57;;;;;;;7.43;5.97;;;;;;;;;;5043751;28;20029;-85
2021/09/01 00:17:23;;;;;;;8.65;7.75;;;;;;;;;;5046403;28;20028;-84
2021/09/01 00:19:49;;;;;;;10.00;6.80;;;;;;;;;;5052443;28;20021;-83
2021/09/01 00:22:16;;;;;;;9.38;7.55;;;;;;;;;;5050958;28;20087;-84
2021/09/01 00:24:42;;;;;;;11.05;7.65;;;;;;;;;;5046477;28;20041;-83
2021/09/01 00:27:08;;;;;;;8.63;6.75;;;;;;;;;;5045090;28;20044;-84
2021/09/01 00:29:36;;;;;;;7.72;6.40;;;;;;;;;;5041626;28;20109;-83
2021/09/01 00:32:06;;;;;;;9.13;7.70;;;;;;;;;;5041392;28;20041;-84
2021/09/01 00:34:32;;;;;;;9.07;7.75;;;;;;;;;;5041834;28;20026;-84
2021/09/01 00:36:58;;;;;;;7.82;7.03;;;;;;;;;;5041292;28;20032;-85
2021/09/01 00:39:25;;;;;;;8.40;7.50;;;;;;;;;;5041592;28;20034;-83
2021/09/01 00:41:51;;;;;;;8.40;7.60;;;;;;;;;;5041681;28;20108;-84
2021/09/01 00:44:23;;;;;;;8.75;7.13;;;;;;;;;;5042299;28;20037;-84
2021/09/01 00:46:49;;;;;;;9.20;7.78;;;;;;;;;;5041686;28;20105;-85
2021/09/01 00:49:15;;;;;;;9.10;8.15;;;;;;;;;;5040802;28;20041;-85
2021/09/01 00:51:48;;;;;;;8.82;7.55;;;;;;;;;;5040313;28;20168;-84
2021/09/01 00:54:16;;;;;;;9.32;7.65;;;;;;;;;;5041954;28;20075;-83
2021/09/01 00:56:52;;;;;;;10.25;8.65;;;;;;;;;;5042015;28;20013;-84
2021/09/01 00:59:19;;;;;;;9.27;7.55;;;;;;;;;;5040521;28;20022;-84
2021/09/01 01:01:45;;;;;;;8.93;7.47;;;;;;;;;;5041503;28;20025;-85
2021/09/01 01:04:13;;;;;;;11.30;7.75;;;;;;;;;;5023406;28;20057;-84
2021/09/01 01:06:39;;;;;;;8.05;6.15;;;;;;;;;;5039563;28;20026;-85
2021/09/01 01:09:08;;;;;;;14.68;8.35;;;;;;;;;;5039612;28;20075;-84
2021/09/01 01:11:34;;;;;;;8.73;7.55;;;;;;;;;;5040128;28;20053;-85
2021/09/01 01:14:00;;;;;;;8.57;7.10;;;;;;;;;;5040771;28;20026;-85
2021/09/01 01:16:27;;;;;;;8.70;7.35;;;;;;;;;;5057132;28;20026;-84
2021/09/01 01:18:59;;;;;;;9.70;7.05;;;;;;;;;;5056196;28;20018;-84
2021/09/01 01:21:26;;;;;;;8.23;6.82;;;;;;;;;;5045721;28;20026;-85
2021/09/01 01:24:02;;;;;;;8.65;6.72;;;;;;;;;;5039188;28;20026;-85
2021/09/01 01:26:35;;;;;;;7.15;6.35;;;;;;;;;;5039624;28;20362;-84
2021/09/01 01:29:04;;;;;;;9.00;6.93;;;;;;;;;;5039581;28;20030;-84
2021/09/01 01:31:30;;;;;;;8.20;6.47;;;;;;;;;;5041843;28;20039;-85
2021/09/01 01:33:59;;;;;;;8.00;6.80;;;;;;;;;;5039981;28;20067;-85
2021/09/01 01:36:26;;;;;;;8.23;7.32;;;;;;;;;;5022624;28;20033;-85
2021/09/01 01:38:52;;;;;;;8.55;6.93;;;;;;;;;;5021219;28;20095;-84
2021/09/01 01:41:21;;;;;;;7.90;6.63;;;;;;;;;;5021806;28;20033;-85
2021/09/01 01:43:48;;;;;;;8.98;6.97;;;;;;;;;;5022122;28;20116;-84
2021/09/01 01:46:22;;;;;;;8.23;6.90;;;;;;;;;;5019673;28;20517;-83
2021/09/01 01:48:49;;;;;;;6.45;5.78;;;;;;;;;;5020887;28;20097;-83
2021/09/01 01:51:18;;;;;;;7.53;6.65;;;;;;;;;;5021991;28;20030;-84
2021/09/01 01:53:44;;;;;;;6.80;5.82;;;;;;;;;;5020249;28;20022;-83
2021/09/01 01:56:10;;;;;;;7.55;6.22;;;;;;;;;;5017634;28;20117;-84
2021/09/01 01:58:36;;;;;;;7.78;6.60;;;;;;;;;;5022123;28;20030;-85
2021/09/01 02:01:02;;;;;;;7.90;6.93;;;;;;;;;;5020625;28;20033;-84
2021/09/01 02:03:28;;;;;;;8.10;6.65;;;;;;;;;;5023642;28;20112;-84
2021/09/01 02:05:54;;;;;;;8.65;7.40;;;;;;;;;;5023347;28;20037;-85
2021/09/01 02:08:20;;;;;;;8.32;6.55;;;;;;;;;;5019947;28;20459;-84
2021/09/01 02:10:46;;;;;;;7.10;6.40;;;;;;;;;;5020452;28;20013;-84
2021/09/01 02:13:13;;;;;;;6.70;5.93;;;;;;;;;;5026097;28;20022;-82
2021/09/01 02:15:39;;;;;;;7.43;6.38;;;;;;;;;;5036008;28;20034;-83
2021/09/01 02:18:05;;;;;;;6.07;5.47;;;;;;;;;;5034596;28;20026;-83
2021/09/01 02:20:31;;;;;;;7.45;6.43;;;;;;;;;;5032248;28;20097;-82
2021/09/01 02:22:57;;;;;;;6.20;5.60;;;;;;;;;;5021877;28;20034;-84
2021/09/01 02:25:26;;;;;;;6.35;5.75;;;;;;;;;;5015737;28;20117;-84
2021/09/01 02:27:52;;;;;;;8.27;7.13;;;;;;;;;;5051165;22;20136;-81
2021/09/01 02:30:20;;;;;;;10.25;7.53;;;;;;;;;;5071519;28;20043;-81
2021/09/01 02:32:46;;;;;;;11.23;7.90;;;;;;;;;;5068912;28;20379;-81
2021/09/01 02:35:12;;;;;;;8.10;7.10;;;;;;;;;;5078652;28;20507;-81
2021/09/01 02:37:38;;;;;;;10.18;7.47;;;;;;;;;;5077141;28;20028;-80
2021/09/01 02:40:05;;;;;;;11.07;7.35;;;;;;;;;;5090149;28;20032;-81
2021/09/01 02:42:31;;;;;;;8.52;6.75;;;;;;;;;;5078794;28;20059;-81
2021/09/01 02:44:57;;;;;;;9.20;6.90;;;;;;;;;;5052346;28;20074;-81
2021/09/01 02:47:23;;;;;;;7.90;6.53;;;;;;;;;;5054598;28;20029;-80
2021/09/01 02:49:49;;;;;;;9.55;8.35;;;;;;;;;;5055044;28;20021;-80
2021/09/01 02:52:15;;;;;;;8.85;7.47;;;;;;;;;;5055653;28;20377;-80
2021/09/01 02:54:42;;;;;;;9.20;7.53;;;;;;;;;;5056196;28;20029;-81
2021/09/01 02:57:08;;;;;;;10.25;7.90;;;;;;;;;;5056860;28;20025;-81
2021/09/01 02:59:34;;;;;;;9.18;6.85;;;;;;;;;;5058137;28;20032;-81
2021/09/01 03:02:00;;;;;;;8.50;6.80;;;;;;;;;;5067400;28;20021;-81
2021/09/01 03:04:26;;;;;;;7.60;6.32;;;;;;;;;;5057514;28;20056;-81
2021/09/01 03:06:52;;;;;;;7.78;6.93;;;;;;;;;;5057321;28;20025;-83
2021/09/01 03:09:18;;;;;;;11.05;8.10;;;;;;;;;;5055883;28;20075;-81
2021/09/01 03:11:44;;;;;;;10.23;7.57;;;;;;;;;;5057355;28;20075;-82
2021/09/01 03:14:10;;;;;;;10.43;7.88;;;;;;;;;;5056549;28;20104;-82
2021/09/01 03:16:36;;;;;;;9.82;7.70;;;;;;;;;;5057713;28;20138;-82
2021/09/01 03:19:02;;;;;;;7.68;6.85;;;;;;;;;;5056396;28;20029;-82
2021/09/01 03:21:28;;;;;;;9.85;7.05;;;;;;;;;;5056051;28;20035;-82
2021/09/01 03:23:54;;;;;;;9.65;7.57;;;;;;;;;;5056343;28;20036;-82
2021/09/01 03:26:20;;;;;;;10.13;7.50;;;;;;;;;;5055835;28;20112;-82
2021/09/01 03:28:46;;;;;;;9.65;7.20;;;;;;;;;;5056343;28;20103;-82
2021/09/01 03:31:12;;;;;;;7.43;6.63;;;;;;;;;;5061414;28;20021;-81
2021/09/01 03:33:38;;;;;;;7.60;5.75;;;;;;;;;;5058436;28;20384;-81
2021/09/01 03:36:05;;;;;;;7.22;6.53;;;;;;;;;;5064557;28;20036;-80
2021/09/01 03:38:31;;;;;;;7.05;5.93;;;;;;;;;;5056906;28;20124;-79
2021/09/01 03:40:57;;;;;;;7.72;6.55;;;;;;;;;;5056522;28;20025;-79
2021/09/01 03:43:23;;;;;;;6.93;6.15;;;;;;;;;;5056158;28;20580;-80
2021/09/01 03:45:51;;;;;;;7.43;6.00;;;;;;;;;;5056364;28;20025;-80
2021/09/01 03:48:17;;;;;;;7.47;6.30;;;;;;;;;;5053842;28;20037;-79
2021/09/01 03:50:43;;;;;;;7.18;6.25;;;;;;;;;;5053770;28;20124;-80
2021/09/01 03:53:09;;;;;;;7.90;6.57;;;;;;;;;;5058989;28;20025;-80
2021/09/01 03:55:35;;;;;;;7.75;6.72;;;;;;;;;;5065846;28;20025;-79
2021/09/01 03:58:01;;;;;;;6.93;6.00;;;;;;;;;;5067353;28;20037;-79
2021/09/01 04:00:27;;;;;;;8.05;6.55;;;;;;;;;;5065250;28;20093;-78
2021/09/01 04:02:53;;;;;;;6.80;5.72;;;;;;;;;;5071730;28;20047;-79
2021/09/01 04:05:19;;;;;;;7.15;6.22;;;;;;;;;;5079800;28;20043;-81
2021/09/01 04:07:45;;;;;;;6.60;5.70;;;;;;;;;;5076567;28;20059;-80
2021/09/01 04:10:12;;;;;;;7.68;6.57;;;;;;;;;;5060768;28;20047;-80
2021/09/01 04:12:38;;;;;;;6.78;5.72;;;;;;;;;;5061624;28;20064;-80
2021/09/01 04:15:04;;;;;;;6.70;5.70;;;;;;;;;;5062146;28;20028;-80
2021/09/01 04:17:31;;;;;;;6.68;5.47;;;;;;;;;;5061242;28;20035;-80
2021/09/01 04:19:57;;;;;;;7.15;5.70;;;;;;;;;;5061814;28;20033;-80
2021/09/01 04:22:23;;;;;;;6.65;5.85;;;;;;;;;;5061917;28;20033;-80
2021/09/01 04:24:49;;;;;;;6.70;5.53;;;;;;;;;;5061637;28;20029;-80
2021/09/01 04:27:15;;;;;;;6.70;5.75;;;;;;;;;;5061787;28;20092;-80
2021/09/01 04:29:41;;;;;;;9.63;6.45;;;;;;;;;;5061794;28;20404;-80
2021/09/01 04:32:07;;;;;;;8.68;6.78;;;;;;;;;;5071054;28;20033;-80
2021/09/01 04:34:33;;;;;;;8.82;5.90;;;;;;;;;;5081648;28;20082;-80
2021/09/01 04:36:59;;;;;;;6.72;5.60;;;;;;;;;;5081830;28;20080;-81
2021/09/01 04:39:25;;;;;;;6.97;5.53;;;;;;;;;;5069285;28;20025;-80
2021/09/01 04:41:51;;;;;;;6.88;5.25;;;;;;;;;;5061095;28;20032;-79
2021/09/01 04:44:17;;;;;;;8.45;6.50;;;;;;;;;;5059050;28;20044;-79
2021/09/01 04:46:43;;;;;;;7.07;6.10;;;;;;;;;;5059125;28;20037;-79
2021/09/01 04:49:09;;;;;;;7.95;5.90;;;;;;;;;;5060650;28;20032;-79
2021/09/01 04:51:35;;;;;;;9.70;7.07;;;;;;;;;;5059207;28;20021;-78
2021/09/01 04:54:01;;;;;;;7.40;5.82;;;;;;;;;;5059214;28;20366;-78
2021/09/01 04:56:27;;;;;;;6.60;5.32;;;;;;;;;;5062594;28;20021;-80
2021/09/01 04:58:53;;;;;;;7.07;5.13;;;;;;;;;;5061908;28;20021;-80
2021/09/01 05:01:19;;;;;;;4.88;4.38;;;;;;;;;;5069967;28;20062;-78
2021/09/01 05:03:45;;;;;;;4.68;4.15;;;;;;;;;;5077915;28;20421;-79
2021/09/01 05:06:11;;;;;;;5.22;4.72;;;;;;;;;;5098193;28;20029;-78
2021/09/01 05:08:37;;;;;;;6.05;5.45;;;;;;;;;;5098507;28;20120;-78
2021/09/01 05:11:03;;;;;;;5.47;4.57;;;;;;;;;;5083947;28;20017;-78
2021/09/01 05:13:29;;;;;;;5.07;4.32;;;;;;;;;;5078603;28;20020;-78
2021/09/01 05:15:55;;;;;;;6.00;4.97;;;;;;;;;;5078272;28;20014;-79
2021/09/01 05:18:21;;;;;;;5.65;5.05;;;;;;;;;;5077923;28;20048;-79
2021/09/01 05:20:48;;;;;;;5.05;4.50;;;;;;;;;;5078452;28;20029;-79
2021/09/01 05:23:17;;;;;;;5.50;4.90;;;;;;;;;;5078449;28;20036;-79
2021/09/01 05:26:03;;;;;;;5.60;4.55;;;;;;;;;;5076801;28;20216;-79
2021/09/01 05:28:30;;;;;;;5.80;3.95;;;;;;;;;;5075798;28;20045;-79
2021/09/01 05:30:59;;;;;;;4.68;3.97;;;;;;;;;;5082810;28;20016;-79
2021/09/01 05:33:27;;;;;;;4.75;4.25;;;;;;;;;;5090426;28;20075;-79
2021/09/01 05:35:54;;;;;;;4.97;4.40;;;;;;;;;;5097909;28;20085;-79
2021/09/01 05:38:20;;;;;;;7.72;5.05;;;;;;;;;;5094176;28;20021;-79
2021/09/01 05:40:47;;;;;;;7.30;5.43;;;;;;;;;;5078705;28;20012;-80
2021/09/01 05:43:15;;;;;;;5.70;5.10;;;;;;;;;;5071575;28;20024;-78
2021/09/01 05:45:41;;;;;;;5.88;5.20;;;;;;;;;;5059335;28;20196;-79
2021/09/01 05:48:10;;;;;;;6.85;5.22;;;;;;;;;;5060093;28;20342;-79
2021/09/01 05:50:36;;;;;;;6.28;5.00;;;;;;;;;;5058512;28;20021;-78
2021/09/01 05:53:03;;;;;;;6.82;5.32;;;;;;;;;;5058583;28;20025;-79
2021/09/01 05:55:35;;;;;;;6.20;5.45;;;;;;;;;;5059343;28;20047;-79
2021/09/01 05:58:03;;;;;;;7.60;5.53;;;;;;;;;;5061010;28;20057;-79
2021/09/01 06:00:32;;;;;;;5.57;4.88;;;;;;;;;;5064030;28;20032;-81
2021/09/01 06:03:04;;;;;;;8.07;6.03;;;;;;;;;;5072666;28;20080;-80
2021/09/01 06:05:30;;;;;;;11.20;5.28;;;;;;;;;;5074161;28;20025;-79
2021/09/01 06:07:57;;;;;;;7.68;5.70;;;;;;;;;;5051425;28;20033;-80
2021/09/01 06:10:28;;;;;;;7.22;5.85;;;;;;;;;;5038910;28;20076;-80
2021/09/01 06:12:55;;;;;;;8.07;6.15;;;;;;;;;;5056469;28;20021;-80
2021/09/01 06:15:21;;;;;;;8.15;5.55;;;;;;;;;;5065930;28;20025;-79
2021/09/01 06:17:47;;;;;;;6.18;5.35;;;;;;;;;;5065364;28;20405;-80
2021/09/01 06:20:13;;;;;;;7.47;5.00;;;;;;;;;;5059023;28;20334;-80
2021/09/01 06:22:40;;;;;;;6.82;5.32;;;;;;;;;;5052448;28;20026;-80
2021/09/01 06:25:06;;;;;;;5.30;4.80;;;;;;;;;;5041133;28;20037;-80
2021/09/01 06:27:33;;;;;;;5.75;4.38;;;;;;;;;;5055561;28;20505;-80
2021/09/01 06:29:59;;;;;;;7.82;5.40;;;;;;;;;;5060820;28;20029;-80
2021/09/01 06:32:25;;;;;;;8.27;5.28;;;;;;;;;;5077418;28;20033;-80
2021/09/01 06:34:51;;;;;;;8.93;5.60;;;;;;;;;;5078418;28;20024;-80
2021/09/01 06:37:17;;;;;;;6.82;6.13;;;;;;;;;;5078554;28;20052;-80
2021/09/01 06:39:43;;;;;;;15.68;9.95;;;;;;;;;;5064733;28;20035;-79
2021/09/01 06:42:09;;;;;;;10.55;8.15;;;;;;;;;;5061102;28;20029;-80
2021/09/01 06:44:35;;;;;;;16.42;9.48;;;;;;;;;;5059889;28;20032;-79
2021/09/01 06:47:03;;;;;;;9.73;7.45;;;;;;;;;;5058452;28;20025;-80
2021/09/01 06:49:30;;;;;;;11.63;9.07;;;;;;;;;;5059319;28;20112;-80
2021/09/01 06:51:56;;;;;;;10.52;8.77;;;;;;;;;;5059357;28;20024;-81
2021/09/01 06:54:22;;;;;;;12.30;10.40;;;;;;;;;;5060258;28;20033;-79
2021/09/01 06:56:48;;;;;;;11.15;8.90;;;;;;;;;;5057797;28;20025;-79
2021/09/01 06:59:14;;;;;;;13.35;9.10;;;;;;;;;;5056785;28;20059;-79
2021/09/01 07:01:40;;;;;;;12.73;9.15;;;;;;;;;;5065605;28;20426;-81
2021/09/01 07:04:06;;;;;;;10.77;8.75;;;;;;;;;;5058315;28;20025;-80
2021/09/01 07:06:32;;;;;;;9.82;8.23;;;;;;;;;;5059390;28;20402;-80
2021/09/01 07:08:58;;;;;;;7.00;6.18;;;;;;;;;;5057440;28;20037;-80
2021/09/01 07:11:24;;;;;;;6.75;5.50;;;;;;;;;;5054382;28;20539;-80
2021/09/01 07:13:50;;;;;;;10.00;8.23;;;;;;;;;;5059430;28;20087;-79
2021/09/01 07:16:16;;;;;;;7.50;6.72;;;;;;;;;;5045958;28;20029;-79
2021/09/01 07:18:42;;;;;;;11.43;8.07;;;;;;;;;;5039059;28;20117;-80
2021/09/01 07:21:08;;;;;;;10.05;7.70;;;;;;;;;;5038364;28;20029;-80
2021/09/01 07:23:34;;;;;;;9.55;8.07;;;;;;;;;;5040487;28;20030;-82
2021/09/01 07:26:01;;;;;;;11.95;6.65;;;;;;;;;;5038892;28;20021;-80
2021/09/01 07:28:27;;;;;;;9.18;6.88;;;;;;;;;;5059015;28;20135;-80
2021/09/01 07:30:53;;;;;;;6.75;6.05;;;;;;;;;;5076514;28;20534;-80
2021/09/01 07:33:19;;;;;;;7.90;5.90;;;;;;;;;;5074626;28;20385;-81
2021/09/01 07:35:46;;;;;;;9.02;7.43;;;;;;;;;;5082034;28;20389;-80
2021/09/01 07:38:12;;;;;;;9.65;8.30;;;;;;;;;;5081778;28;20046;-80
2021/09/01 07:40:38;;;;;;;10.93;7.97;;;;;;;;;;5070446;28;20033;-80
2021/09/01 07:43:04;;;;;;;13.57;8.75;;;;;;;;;;5062921;28;20025;-80
2021/09/01 07:45:30;;;;;;;10.23;8.25;;;;;;;;;;5062949;28;20033;-80
2021/09/01 07:47:57;;;;;;;10.25;7.82;;;;;;;;;;5062242;28;20021;-80
2021/09/01 07:50:28;;;;;;;9.45;7.15;;;;;;;;;;5061657;28;20036;-79
2021/09/01 07:52:54;;;;;;;8.60;7.43;;;;;;;;;;5059717;28;20021;-79
2021/09/01 07:55:20;;;;;;;8.32;6.75;;;;;;;;;;5062597;28;20079;-80
2021/09/01 07:57:46;;;;;;;11.25;6.90;;;;;;;;;;5050801;28;20025;-80
2021/09/01 08:00:13;;;;;;;9.23;6.97;;;;;;;;;;5054531;28;20020;-80
2021/09/01 08:02:39;;;;;;;10.52;6.55;;;;;;;;;;5077578;28;20031;-79
2021/09/01 08:05:06;;;;;;;9.13;6.15;;;;;;;;;;5063057;28;20429;-80
2021/09/01 08:07:32;;;;;;;6.45;5.30;;;;;;;;;;5067018;28;20174;-80
2021/09/01 08:09:58;;;;;;;9.60;6.05;;;;;;;;;;5047679;28;20022;-80
2021/09/01 08:12:24;;;;;;;8.07;5.72;;;;;;;;;;5041736;28;20065;-80
2021/09/01 08:14:50;;;;;;;11.65;5.97;;;;;;;;;;5042205;28;20052;-81
2021/09/01 08:17:16;;;;;;;8.25;5.55;;;;;;;;;;5041910;28;20025;-82
2021/09/01 08:19:43;;;;;;;8.13;5.88;;;;;;;;;;5044332;28;20081;-82
2021/09/01 08:22:09;;;;;;;8.45;5.35;;;;;;;;;;5057968;28;20075;-81
2021/09/01 08:24:38;;;;;;;6.95;5.60;;;;;;;;;;5046809;28;20029;-82
2021/09/01 08:27:31;;;;;;;8.90;4.93;;;;;;;;;;5055548;23;20017;-82
2021/09/01 08:30:16;;;;;;;6.57;4.78;;;;;;;;;;5057439;28;20044;-80
2021/09/01 08:32:47;;;;;;;10.48;5.65;;;;;;;;;;5062090;28;20056;-80
2021/09/01 08:35:36;;;;;;;5.78;4.80;;;;;;;;;;5069718;28;20085;-82
2021/09/01 08:38:14;;;;;;;6.78;5.35;;;;;;;;;;5073495;28;20037;-81
2021/09/01 08:40:43;;;;;;;7.32;5.93;;;;;;;;;;5058419;28;20029;-81
2021/09/01 08:43:12;;;;;;;6.18;5.07;;;;;;;;;;5054825;28;20136;-84
2021/09/01 08:46:02;;;;;;;5.95;4.22;;;;;;;;;;5052468;28;20093;-83
2021/09/01 08:48:30;;;;;;;5.45;4.80;;;;;;;;;;5048380;28;20041;-82
2021/09/01 08:50:56;;;;;;;6.80;5.05;;;;;;;;;;5031597;28;20029;-82
2021/09/01 08:53:24;;;;;;;5.00;4.22;;;;;;;;;;5047069;28;20131;-81
2021/09/01 08:55:51;;;;;;;4.70;4.30;;;;;;;;;;5047597;28;20049;-82
2021/09/01 08:58:18;;;;;;;4.80;4.28;;;;;;;;;;5047264;28;20070;-85
2021/09/01 09:00:45;;;;;;;5.60;4.50;;;;;;;;;;5054560;28;20071;-82
2021/09/01 09:03:16;;;;;;;5.28;4.53;;;;;;;;;;5058160;28;20398;-82
2021/09/01 09:05:48;;;;;;;6.78;5.25;;;;;;;;;;5047155;28;20033;-83
2021/09/01 09:08:15;;;;;;;6.18;5.45;;;;;;;;;;5047172;28;20047;-82
2021/09/01 09:10:43;;;;;;;7.28;5.20;;;;;;;;;;5047291;28;20013;-81
2021/09/01 09:13:16;;;;;;;5.15;4.65;;;;;;;;;;5045557;28;20025;-82
2021/09/01 09:15:43;;;;;;;5.88;5.30;;;;;;;;;;5047442;28;20022;-83
2021/09/01 09:18:28;;;;;;;5.97;4.47;;;;;;;;;;5050657;28;20025;-82
2021/09/01 09:21:13;;;;;;;4.80;4.30;;;;;;;;;;5043959;28;20021;-83
2021/09/01 09:23:39;;;;;;;5.03;4.43;;;;;;;;;;5038497;28;20030;-82
2021/09/01 09:26:25;;;;;;;6.25;5.07;;;;;;;;;;5040701;28;20029;-82
2021/09/01 09:29:10;;;;;;;6.63;4.90;;;;;;;;;;5044762;28;20038;-81
2021/09/01 09:31:37;;;;;;;8.05;5.00;;;;;;;;;;5047855;28;20032;-82
2021/09/01 09:34:06;;;;;;;7.28;4.82;;;;;;;;;;5047332;28;20236;-82
2021/09/01 09:36:33;;;;;;;5.22;4.03;;;;;;;;;;5044706;28;20116;-82
2021/09/01 09:38:59;;;;;;;7.25;4.60;;;;;;;;;;5044192;28;20056;-81
2021/09/01 09:41:27;;;;;;;7.07;5.65;;;;;;;;;;5045532;28;20053;-82
2021/09/01 09:43:55;;;;;;;8.70;4.65;;;;;;;;;;5044216;28;20029;-81
2021/09/01 09:46:22;;;;;;;5.55;4.60;;;;;;;;;;5043950;28;20133;-81
2021/09/01 09:48:48;;;;;;;5.50;4.68;;;;;;;;;;5045416;28;20089;-82
2021/09/01 09:51:16;;;;;;;7.65;5.18;;;;;;;;;;5044758;28;20438;-86
2021/09/01 09:53:44;;;;;;;7.20;5.25;;;;;;;;;;5045146;28;20051;-85
2021/09/01 09:56:26;;;;;;;6.63;4.78;;;;;;;;;;5043668;28;20032;-84
2021/09/01 09:58:55;;;;;;;3.97;3.58;;;;;;;;;;5046572;28;20052;-83
2021/09/01 10:01:22;;;;;;;6.05;4.68;;;;;;;;;;5054671;28;20030;-83
2021/09/01 10:03:49;;;;;;;5.38;4.15;;;;;;;;;;5048450;28;20071;-82
2021/09/01 10:06:17;;;;;;;4.88;3.97;;;;;;;;;;5048951;28;20041;-81
2021/09/01 10:08:44;;;;;;;4.20;3.70;;;;;;;;;;5046327;28;20025;-83
2021/09/01 10:11:12;;;;;;;4.40;3.97;;;;;;;;;;5046150;28;20564;-83
2021/09/01 10:13:45;;;;;;;3.92;3.50;;;;;;;;;;5048034;28;20037;-83
2021/09/01 10:16:14;;;;;;;4.30;3.90;;;;;;;;;;5046586;28;20040;-84
2021/09/01 10:18:41;;;;;;;6.05;4.47;;;;;;;;;;5044241;28;20040;-83
2021/09/01 10:21:08;;;;;;;4.55;4.05;;;;;;;;;;5042946;28;20037;-83
2021/09/01 10:23:39;;;;;;;5.80;4.65;;;;;;;;;;5043667;28;20029;-83
2021/09/01 10:26:20;;;;;;;5.85;4.30;;;;;;;;;;5042121;28;20121;-83
2021/09/01 10:28:46;;;;;;;5.05;3.85;;;;;;;;;;5042070;28;20033;-83
2021/09/01 10:31:12;;;;;;;5.72;4.25;;;;;;;;;;5053211;28;20017;-85
2021/09/01 10:33:41;;;;;;;4.97;4.07;;;;;;;;;;5072670;28;20001;-83
2021/09/01 10:36:25;;;;;;;5.15;4.28;;;;;;;;;;5069613;28;20029;-84
2021/09/01 10:38:51;;;;;;;4.60;4.07;;;;;;;;;;5063476;28;20051;-83
2021/09/01 10:41:39;;;;;;;3.92;3.53;;;;;;;;;;5055768;28;20021;-84
2021/09/01 10:44:08;;;;;;;4.72;3.53;;;;;;;;;;5043135;28;20095;-84
2021/09/01 10:46:55;;;;;;;7.13;3.60;;;;;;;;;;5045554;28;20044;-84
2021/09/01 10:49:21;;;;;;;6.47;4.47;;;;;;;;;;5045558;28;20044;-83
2021/09/01 10:51:55;;;;;;;5.03;4.30;;;;;;;;;;5045222;28;20033;-84
2021/09/01 10:54:41;;;;;;;4.00;3.60;;;;;;;;;;5044783;28;20040;-83
2021/09/01 10:57:20;;;;;;;3.92;3.53;;;;;;;;;;5051455;28;20092;-84
2021/09/01 10:59:46;;;;;;;4.47;3.95;;;;;;;;;;5054499;28;20095;-83
2021/09/01 11:02:14;;;;;;;4.72;4.25;;;;;;;;;;5057794;28;20013;-84
2021/09/01 11:04:50;;;;;;;4.72;3.75;;;;;;;;;;5074928;28;20025;-84
2021/09/01 11:07:34;;;;;;;4.38;3.70;;;;;;;;;;5075158;28;20052;-82
2021/09/01 11:10:04;;;;;;;4.90;4.15;;;;;;;;;;5070783;28;20037;-83
2021/09/01 11:12:31;;;;;;;7.97;5.03;;;;;;;;;;5067275;28;20036;-84
2021/09/01 11:15:16;;;;;;;5.60;4.07;;;;;;;;;;5063933;28;20028;-83
2021/09/01 11:17:42;;;;;;;3.90;3.58;;;;;;;;;;5047261;28;20089;-84
2021/09/01 11:20:10;;;;;;;5.25;4.05;;;;;;;;;;5044968;28;20018;-84
2021/09/01 11:22:37;;;;;;;3.42;3.13;;;;;;;;;;5046548;28;20027;-84
2021/09/01 11:25:32;;;;;;;3.58;3.10;;;;;;;;;;5046947;28;20084;-82
2021/09/01 11:27:59;;;;;;;6.53;4.15;;;;;;;;;;5037590;28;20053;-85
2021/09/01 11:30:32;;;;;;;7.20;4.82;;;;;;;;;;5056496;28;20409;-82
2021/09/01 11:32:58;;;;;;;5.95;3.90;;;;;;;;;;5050844;28;20362;-82
2021/09/01 11:35:27;;;;;;;3.55;3.20;;;;;;;;;;5046854;28;20048;-83
2021/09/01 11:37:56;;;;;;;3.70;3.40;;;;;;;;;;5047321;28;20021;-83
2021/09/01 11:40:22;;;;;;;4.63;3.60;;;;;;;;;;5049878;28;20100;-83
2021/09/01 11:42:49;;;;;;;4.10;3.30;;;;;;;;;;5050418;28;20534;-82
2021/09/01 11:45:15;;;;;;;4.85;3.97;;;;;;;;;;5049824;28;20033;-83
2021/09/01 11:47:42;;;;;;;4.50;3.65;;;;;;;;;;5045309;28;20060;-82
2021/09/01 11:50:08;;;;;;;5.72;4.10;;;;;;;;;;5043373;28;20051;-83
2021/09/01 11:52:34;;;;;;;4.97;3.88;;;;;;;;;;5045407;28;20089;-83
2021/09/01 11:55:01;;;;;;;6.57;4.47;;;;;;;;;;5043843;28;20026;-83
2021/09/01 11:57:31;;;;;;;4.10;3.42;;;;;;;;;;5043268;28;20061;-81
2021/09/01 11:59:58;;;;;;;4.35;3.40;;;;;;;;;;5028022;28;20060;-84
2021/09/01 12:02:26;;;;;;;3.40;3.10;;;;;;;;;;5057909;28;20068;-84
2021/09/01 12:04:53;;;;;;;3.80;3.40;;;;;;;;;;5042986;28;20042;-83
2021/09/01 12:07:27;;;;;;;4.40;3.25;;;;;;;;;;5049765;28;20490;-83
2021/09/01 12:09:54;;;;;;;6.15;3.55;;;;;;;;;;5043310;28;20029;-84
2021/09/01 12:12:20;;;;;;;6.32;3.80;;;;;;;;;;5044838;28;20025;-83
2021/09/01 12:14:46;;;;;;;4.47;3.38;;;;;;;;;;5043569;28;20116;-82
2021/09/01 12:17:19;;;;;;;4.07;3.60;;;;;;;;;;5046728;28;20096;-83
2021/09/01 12:19:46;;;;;;;4.95;3.35;;;;;;;;;;5047672;28;20125;-82
2021/09/01 12:22:13;;;;;;;5.30;3.25;;;;;;;;;;5049140;28;20083;-83
2021/09/01 12:24:39;;;;;;;5.70;4.00;;;;;;;;;;5050124;28;20026;-82
2021/09/01 12:27:10;;;;;;;5.35;4.07;;;;;;;;;;5050099;28;20044;-84
2021/09/01 12:29:40;;;;;;;6.93;4.22;;;;;;;;;;5047563;28;20059;-84
2021/09/01 12:35:15;;;;;;;8.95;4.72;;;;;;;;;;5066405;28;20074;-82
2021/09/01 12:37:41;;;;;;;4.97;3.92;;;;;;;;;;5064741;28;20033;-82
2021/09/01 12:40:08;;;;;;;4.97;3.45;;;;;;;;;;5064281;28;20069;-82
2021/09/01 12:42:43;;;;;;;3.78;3.35;;;;;;;;;;5070102;28;20025;-83
2021/09/01 12:45:15;;;;;;;3.95;3.53;;;;;;;;;;5073113;28;20021;-81
2021/09/01 12:48:01;;;;;;;6.40;3.50;;;;;;;;;;5067813;28;20029;-81
2021/09/01 12:50:50;;;;;;;4.05;3.10;;;;;;;;;;5068306;28;20017;-83
2021/09/01 12:53:21;;;;;;;3.30;3.00;;;;;;;;;;5060667;28;20041;-82
2021/09/01 12:55:48;;;;;;;6.13;3.40;;;;;;;;;;5067106;28;20028;-82
2021/09/01 12:58:14;;;;;;;3.47;3.17;;;;;;;;;;5066242;28;20270;-83
2021/09/01 13:00:41;;;;;;;3.78;3.25;;;;;;;;;;5068173;28;20033;-83
2021/09/01 13:03:07;;;;;;;3.80;3.28;;;;;;;;;;5045747;28;20030;-82
2021/09/01 13:05:34;;;;;;;3.97;3.22;;;;;;;;;;5045901;28;20021;-82
2021/09/01 13:08:00;;;;;;;3.10;2.90;;;;;;;;;;5046001;28;20071;-81
2021/09/01 13:10:26;;;;;;;4.72;3.30;;;;;;;;;;5044460;28;20021;-84
2021/09/01 13:12:55;;;;;;;4.28;3.67;;;;;;;;;;5045363;28;20026;-83
2021/09/01 13:15:21;;;;;;;3.80;3.42;;;;;;;;;;5046071;28;20032;-84
2021/09/01 13:17:47;;;;;;;3.25;2.92;;;;;;;;;;5044301;28;20379;-80
2021/09/01 13:20:15;;;;;;;4.20;3.45;;;;;;;;;;5043572;28;20450;-82
2021/09/01 13:22:41;;;;;;;3.58;3.08;;;;;;;;;;5044875;28;20040;-84
2021/09/01 13:25:08;;;;;;;3.70;3.15;;;;;;;;;;5044637;28;20038;-83
2021/09/01 13:27:35;;;;;;;4.40;3.50;;;;;;;;;;5044697;28;20033;-82
2021/09/01 13:30:03;;;;;;;4.38;3.38;;;;;;;;;;5043867;28;20105;-84
2021/09/01 13:32:30;;;;;;;3.67;3.35;;;;;;;;;;5051444;28;20113;-84
2021/09/01 13:34:56;;;;;;;8.25;3.53;;;;;;;;;;5043685;28;20021;-83
2021/09/01 13:37:22;;;;;;;3.70;3.15;;;;;;;;;;5038012;28;20029;-82
2021/09/01 13:39:48;;;;;;;3.65;3.17;;;;;;;;;;5041527;28;20109;-82
2021/09/01 13:42:16;;;;;;;3.45;3.15;;;;;;;;;;5038285;28;20029;-84
2021/09/01 13:44:47;;;;;;;3.92;3.05;;;;;;;;;;5039944;28;20064;-82
2021/09/01 13:47:14;;;;;;;3.35;3.05;;;;;;;;;;5042223;28;20635;-84
2021/09/01 13:49:40;;;;;;;6.30;3.47;;;;;;;;;;5039895;28;20426;-84
2021/09/01 13:52:07;;;;;;;3.50;3.20;;;;;;;;;;5039339;28;20116;-82
2021/09/01 13:54:33;;;;;;;5.10;3.35;;;;;;;;;;5037916;28;20029;-82
2021/09/01 13:57:00;;;;;;;4.07;3.38;;;;;;;;;;5036320;28;20051;-83
2021/09/01 13:59:27;;;;;;;4.78;3.20;;;;;;;;;;5039236;28;20520;-84
2021/09/01 14:01:53;;;;;;;3.55;3.20;;;;;;;;;;5058896;28;20055;-82
2021/09/01 14:04:19;;;;;;;3.22;2.92;;;;;;;;;;5042455;28;20029;-82
2021/09/01 14:06:45;;;;;;;5.80;4.15;;;;;;;;;;5045408;28;20393;-82
2021/09/01 14:09:19;;;;;;;3.63;3.28;;;;;;;;;;5045605;28;20036;-83
2021/09/01 14:11:46;;;;;;;5.13;3.05;;;;;;;;;;5041653;28;20041;-83
2021/09/01 14:14:13;;;;;;;3.50;3.20;;;;;;;;;;5045072;28;20519;-83
2021/09/01 14:16:40;;;;;;;3.70;3.28;;;;;;;;;;5040954;28;20030;-83
2021/09/01 14:19:06;;;;;;;4.05;3.22;;;;;;;;;;5044217;28;20076;-82
2021/09/01 14:21:32;;;;;;;3.50;3.00;;;;;;;;;;5045164;28;20026;-85
2021/09/01 14:23:58;;;;;;;3.00;2.70;;;;;;;;;;5040686;28;20112;-85
2021/09/01 14:26:25;;;;;;;4.05;3.03;;;;;;;;;;5039198;28;20047;-82
2021/09/01 14:28:52;;;;;;;5.57;3.38;;;;;;;;;;5042377;28;20037;-84
2021/09/01 14:31:18;;;;;;;4.35;3.63;;;;;;;;;;5042598;28;20095;-83
2021/09/01 14:33:44;;;;;;;4.03;3.50;;;;;;;;;;5041921;28;20047;-85
2021/09/01 14:36:10;;;;;;;5.13;3.53;;;;;;;;;;5047887;28;20036;-84
2021/09/01 14:38:40;;;;;;;4.13;3.33;;;;;;;;;;5053344;28;20106;-84
2021/09/01 14:41:06;;;;;;;4.97;3.75;;;;;;;;;;5044632;28;20500;-84
2021/09/01 14:43:32;;;;;;;5.88;3.53;;;;;;;;;;5044587;28;20021;-84
2021/09/01 14:45:59;;;;;;;3.65;3.30;;;;;;;;;;5044918;28;20032;-85
2021/09/01 14:48:25;;;;;;;3.67;3.28;;;;;;;;;;5043139;28;20391;-84